sensor_id;sensor_type;location;lat;lon;timestamp;P1;durP1;ratioP1;P2;durP2;ratioP2
38111;SDS011;64011;56.312;44.048;2023-05-10T00:01:42;23.25;;;8.15;;
38111;SDS011;64011;56.312;44.048;2023-05-10T00:03:43;21.88;;;8.85;;
38111;SDS011;64011;56.312;44.048;2023-05-10T00:05:44;21.40;;;8.70;;
38111;SDS011;64011;56.312;44.048;2023-05-10T00:07:45;21.48;;;8.50;;
38111;SDS011;64011;56.312;44.048;2023-05-10T00:09:46;24.92;;;8.32;;
38111;SDS011;64011;56.312;44.048;2023-05-10T00:11:47;23.08;;;8.65;;
38111;SDS011;64011;56.312;44.048;2023-05-10T00:13:48;22.92;;;7.95;;
38111;SDS011;64011;56.312;44.048;2023-05-10T00:15:50;22.30;;;8.00;;
38111;SDS011;64011;56.312;44.048;2023-05-10T00:17:51;20.58;;;7.82;;
38111;SDS011;64011;56.312;44.048;2023-05-10T00:19:52;22.77;;;9.27;;
38111;SDS011;64011;56.312;44.048;2023-05-10T00:21:53;21.63;;;8.27;;
38111;SDS011;64011;56.312;44.048;2023-05-10T00:23:54;25.67;;;8.43;;
38111;SDS011;64011;56.312;44.048;2023-05-10T00:25:55;26.75;;;8.88;;
38111;SDS011;64011;56.312;44.048;2023-05-10T00:27:56;25.10;;;8.63;;
38111;SDS011;64011;56.312;44.048;2023-05-10T00:29:57;20.17;;;8.65;;
38111;SDS011;64011;56.312;44.048;2023-05-10T00:31:59;20.13;;;6.93;;
38111;SDS011;64011;56.312;44.048;2023-05-10T00:34:00;17.98;;;6.97;;
38111;SDS011;64011;56.312;44.048;2023-05-10T00:36:01;19.58;;;7.65;;
38111;SDS011;64011;56.312;44.048;2023-05-10T00:38:02;22.90;;;8.07;;
38111;SDS011;64011;56.312;44.048;2023-05-10T00:40:03;24.65;;;8.57;;
38111;SDS011;64011;56.312;44.048;2023-05-10T00:42:05;22.90;;;8.57;;
38111;SDS011;64011;56.312;44.048;2023-05-10T00:44:06;22.77;;;8.32;;
38111;SDS011;64011;56.312;44.048;2023-05-10T00:46:07;23.63;;;8.15;;
38111;SDS011;64011;56.312;44.048;2023-05-10T00:48:09;21.27;;;7.18;;
38111;SDS011;64011;56.312;44.048;2023-05-10T00:50:10;17.55;;;6.05;;
38111;SDS011;64011;56.312;44.048;2023-05-10T00:52:12;17.35;;;6.25;;
38111;SDS011;64011;56.312;44.048;2023-05-10T00:54:14;17.77;;;6.47;;
38111;SDS011;64011;56.312;44.048;2023-05-10T00:56:15;19.33;;;7.07;;
38111;SDS011;64011;56.312;44.048;2023-05-10T00:58:16;19.92;;;7.22;;
38111;SDS011;64011;56.312;44.048;2023-05-10T01:00:17;22.75;;;7.20;;
38111;SDS011;64011;56.312;44.048;2023-05-10T01:02:18;20.92;;;7.85;;
38111;SDS011;64011;56.312;44.048;2023-05-10T01:04:20;20.58;;;7.78;;
38111;SDS011;64011;56.312;44.048;2023-05-10T01:06:21;21.15;;;6.60;;
38111;SDS011;64011;56.312;44.048;2023-05-10T01:08:22;18.02;;;6.15;;
38111;SDS011;64011;56.312;44.048;2023-05-10T01:10:23;16.38;;;5.95;;
38111;SDS011;64011;56.312;44.048;2023-05-10T01:12:24;16.85;;;5.53;;
38111;SDS011;64011;56.312;44.048;2023-05-10T01:14:25;19.33;;;6.57;;
38111;SDS011;64011;56.312;44.048;2023-05-10T01:16:27;17.33;;;6.07;;
38111;SDS011;64011;56.312;44.048;2023-05-10T01:18:28;17.80;;;6.10;;
38111;SDS011;64011;56.312;44.048;2023-05-10T01:20:32;18.25;;;6.63;;
38111;SDS011;64011;56.312;44.048;2023-05-10T01:22:46;18.02;;;6.78;;
38111;SDS011;64011;56.312;44.048;2023-05-10T01:27:46;18.60;;;6.45;;
38111;SDS011;64011;56.312;44.048;2023-05-10T01:32:29;17.75;;;6.35;;
38111;SDS011;64011;56.312;44.048;2023-05-10T01:34:34;16.33;;;5.25;;
38111;SDS011;64011;56.312;44.048;2023-05-10T01:36:38;20.27;;;4.57;;
38111;SDS011;64011;56.312;44.048;2023-05-10T01:38:43;19.50;;;7.03;;
38111;SDS011;64011;56.312;44.048;2023-05-10T01:40:52;17.27;;;6.95;;
38111;SDS011;64011;56.312;44.048;2023-05-10T01:43:02;16.98;;;6.32;;
38111;SDS011;64011;56.312;44.048;2023-05-10T01:45:06;16.65;;;5.32;;
38111;SDS011;64011;56.312;44.048;2023-05-10T01:47:10;18.90;;;5.82;;
38111;SDS011;64011;56.312;44.048;2023-05-10T01:49:17;16.42;;;5.82;;
38111;SDS011;64011;56.312;44.048;2023-05-10T01:51:23;18.92;;;5.55;;
38111;SDS011;64011;56.312;44.048;2023-05-10T01:53:25;19.40;;;6.40;;
38111;SDS011;64011;56.312;44.048;2023-05-10T01:55:28;15.98;;;5.10;;
38111;SDS011;64011;56.312;44.048;2023-05-10T01:57:32;19.63;;;5.78;;
38111;SDS011;64011;56.312;44.048;2023-05-10T01:59:34;17.88;;;6.65;;
38111;SDS011;64011;56.312;44.048;2023-05-10T02:01:35;19.25;;;6.60;;
38111;SDS011;64011;56.312;44.048;2023-05-10T02:03:37;16.80;;;5.90;;
38111;SDS011;64011;56.312;44.048;2023-05-10T02:05:40;16.98;;;5.53;;
38111;SDS011;64011;56.312;44.048;2023-05-10T02:07:41;17.85;;;5.63;;
38111;SDS011;64011;56.312;44.048;2023-05-10T02:09:44;17.17;;;5.80;;
38111;SDS011;64011;56.312;44.048;2023-05-10T02:11:45;16.17;;;5.65;;
38111;SDS011;64011;56.312;44.048;2023-05-10T02:13:49;17.92;;;5.47;;
38111;SDS011;64011;56.312;44.048;2023-05-10T02:15:50;17.25;;;5.40;;
38111;SDS011;64011;56.312;44.048;2023-05-10T02:17:52;15.48;;;5.43;;
38111;SDS011;64011;56.312;44.048;2023-05-10T02:19:54;18.13;;;5.07;;
38111;SDS011;64011;56.312;44.048;2023-05-10T02:21:57;15.35;;;4.47;;
38111;SDS011;64011;56.312;44.048;2023-05-10T02:24:00;15.02;;;4.80;;
38111;SDS011;64011;56.312;44.048;2023-05-10T02:26:02;18.23;;;5.35;;
38111;SDS011;64011;56.312;44.048;2023-05-10T02:28:04;18.20;;;5.63;;
38111;SDS011;64011;56.312;44.048;2023-05-10T02:30:06;16.73;;;5.65;;
38111;SDS011;64011;56.312;44.048;2023-05-10T02:32:08;16.80;;;5.50;;
38111;SDS011;64011;56.312;44.048;2023-05-10T02:34:10;18.90;;;6.45;;
38111;SDS011;64011;56.312;44.048;2023-05-10T02:36:12;15.18;;;5.07;;
38111;SDS011;64011;56.312;44.048;2023-05-10T02:38:14;16.40;;;5.18;;
38111;SDS011;64011;56.312;44.048;2023-05-10T02:40:16;19.52;;;5.15;;
38111;SDS011;64011;56.312;44.048;2023-05-10T02:42:17;18.17;;;5.20;;
38111;SDS011;64011;56.312;44.048;2023-05-10T02:44:19;15.48;;;5.03;;
38111;SDS011;64011;56.312;44.048;2023-05-10T02:46:20;16.50;;;5.47;;
38111;SDS011;64011;56.312;44.048;2023-05-10T02:48:20;18.30;;;5.75;;
38111;SDS011;64011;56.312;44.048;2023-05-10T02:50:21;17.52;;;5.95;;
38111;SDS011;64011;56.312;44.048;2023-05-10T02:52:25;16.50;;;5.57;;
38111;SDS011;64011;56.312;44.048;2023-05-10T02:54:29;17.67;;;6.43;;
38111;SDS011;64011;56.312;44.048;2023-05-10T02:56:31;18.42;;;6.88;;
38111;SDS011;64011;56.312;44.048;2023-05-10T02:58:33;23.42;;;8.57;;
38111;SDS011;64011;56.312;44.048;2023-05-10T03:00:34;19.45;;;7.05;;
38111;SDS011;64011;56.312;44.048;2023-05-10T03:02:35;16.75;;;5.80;;
38111;SDS011;64011;56.312;44.048;2023-05-10T03:04:36;18.45;;;7.00;;
38111;SDS011;64011;56.312;44.048;2023-05-10T03:06:37;14.85;;;5.93;;
38111;SDS011;64011;56.312;44.048;2023-05-10T03:08:38;17.45;;;5.50;;
38111;SDS011;64011;56.312;44.048;2023-05-10T03:10:44;16.23;;;5.20;;
38111;SDS011;64011;56.312;44.048;2023-05-10T03:12:53;18.85;;;5.68;;
38111;SDS011;64011;56.312;44.048;2023-05-10T03:15:00;15.90;;;6.10;;
38111;SDS011;64011;56.312;44.048;2023-05-10T03:17:06;17.48;;;5.90;;
38111;SDS011;64011;56.312;44.048;2023-05-10T03:19:11;16.70;;;5.68;;
38111;SDS011;64011;56.312;44.048;2023-05-10T03:21:17;17.15;;;5.65;;
38111;SDS011;64011;56.312;44.048;2023-05-10T03:23:21;16.05;;;5.60;;
38111;SDS011;64011;56.312;44.048;2023-05-10T03:25:24;15.85;;;5.40;;
38111;SDS011;64011;56.312;44.048;2023-05-10T03:27:28;14.93;;;5.68;;
38111;SDS011;64011;56.312;44.048;2023-05-10T03:29:30;16.48;;;4.55;;
38111;SDS011;64011;56.312;44.048;2023-05-10T03:31:31;16.88;;;5.28;;
38111;SDS011;64011;56.312;44.048;2023-05-10T03:33:32;17.55;;;6.00;;
38111;SDS011;64011;56.312;44.048;2023-05-10T03:35:33;14.77;;;5.00;;
38111;SDS011;64011;56.312;44.048;2023-05-10T03:37:35;14.52;;;4.93;;
38111;SDS011;64011;56.312;44.048;2023-05-10T03:39:36;19.02;;;6.47;;
38111;SDS011;64011;56.312;44.048;2023-05-10T03:41:36;21.30;;;10.50;;
38111;SDS011;64011;56.312;44.048;2023-05-10T03:43:39;20.85;;;8.82;;
38111;SDS011;64011;56.312;44.048;2023-05-10T03:45:39;17.67;;;5.72;;
38111;SDS011;64011;56.312;44.048;2023-05-10T03:47:40;18.35;;;8.85;;
38111;SDS011;64011;56.312;44.048;2023-05-10T03:49:41;22.73;;;8.95;;
38111;SDS011;64011;56.312;44.048;2023-05-10T03:51:42;22.08;;;9.48;;
38111;SDS011;64011;56.312;44.048;2023-05-10T03:53:43;21.75;;;8.65;;
38111;SDS011;64011;56.312;44.048;2023-05-10T03:55:44;16.80;;;6.97;;
38111;SDS011;64011;56.312;44.048;2023-05-10T03:57:44;17.77;;;6.63;;
38111;SDS011;64011;56.312;44.048;2023-05-10T03:59:47;17.50;;;6.35;;
38111;SDS011;64011;56.312;44.048;2023-05-10T04:01:47;18.25;;;6.00;;
38111;SDS011;64011;56.312;44.048;2023-05-10T04:03:48;17.48;;;5.85;;
38111;SDS011;64011;56.312;44.048;2023-05-10T04:05:49;16.92;;;5.63;;
38111;SDS011;64011;56.312;44.048;2023-05-10T04:07:59;12.50;;;3.80;;
38111;SDS011;64011;56.312;44.048;2023-05-10T04:10:00;12.32;;;3.20;;
38111;SDS011;64011;56.312;44.048;2023-05-10T04:12:00;16.23;;;4.10;;
38111;SDS011;64011;56.312;44.048;2023-05-10T04:14:01;14.10;;;3.60;;
38111;SDS011;64011;56.312;44.048;2023-05-10T04:16:04;14.52;;;3.85;;
38111;SDS011;64011;56.312;44.048;2023-05-10T04:18:05;13.45;;;4.43;;
38111;SDS011;64011;56.312;44.048;2023-05-10T04:20:07;15.68;;;4.10;;
38111;SDS011;64011;56.312;44.048;2023-05-10T04:22:08;16.90;;;4.18;;
38111;SDS011;64011;56.312;44.048;2023-05-10T04:24:09;13.10;;;3.60;;
38111;SDS011;64011;56.312;44.048;2023-05-10T04:26:11;10.80;;;3.00;;
38111;SDS011;64011;56.312;44.048;2023-05-10T04:28:11;13.15;;;3.35;;
38111;SDS011;64011;56.312;44.048;2023-05-10T04:30:12;10.18;;;2.35;;
38111;SDS011;64011;56.312;44.048;2023-05-10T04:32:15;10.60;;;2.50;;
38111;SDS011;64011;56.312;44.048;2023-05-10T04:34:16;9.43;;;2.55;;
38111;SDS011;64011;56.312;44.048;2023-05-10T04:36:16;8.50;;;1.75;;
38111;SDS011;64011;56.312;44.048;2023-05-10T04:38:17;5.82;;;2.08;;
38111;SDS011;64011;56.312;44.048;2023-05-10T04:40:18;9.48;;;1.95;;
38111;SDS011;64011;56.312;44.048;2023-05-10T04:42:19;9.68;;;1.95;;
38111;SDS011;64011;56.312;44.048;2023-05-10T04:44:20;6.05;;;1.55;;
38111;SDS011;64011;56.312;44.048;2023-05-10T04:46:21;6.70;;;1.90;;
38111;SDS011;64011;56.312;44.048;2023-05-10T04:48:23;8.98;;;2.20;;
38111;SDS011;64011;56.312;44.048;2023-05-10T04:50:24;10.65;;;2.28;;
38111;SDS011;64011;56.312;44.048;2023-05-10T04:52:24;6.63;;;1.75;;
38111;SDS011;64011;56.312;44.048;2023-05-10T04:54:25;7.25;;;2.00;;
38111;SDS011;64011;56.312;44.048;2023-05-10T04:56:27;9.23;;;1.92;;
38111;SDS011;64011;56.312;44.048;2023-05-10T04:58:28;9.02;;;1.98;;
38111;SDS011;64011;56.312;44.048;2023-05-10T05:00:29;7.20;;;1.85;;
38111;SDS011;64011;56.312;44.048;2023-05-10T05:02:30;7.38;;;1.60;;
38111;SDS011;64011;56.312;44.048;2023-05-10T05:04:32;8.25;;;1.83;;
38111;SDS011;64011;56.312;44.048;2023-05-10T05:06:34;5.55;;;1.80;;
38111;SDS011;64011;56.312;44.048;2023-05-10T05:08:35;8.93;;;2.00;;
38111;SDS011;64011;56.312;44.048;2023-05-10T05:10:36;6.45;;;1.85;;
38111;SDS011;64011;56.312;44.048;2023-05-10T05:12:37;10.20;;;2.33;;
38111;SDS011;64011;56.312;44.048;2023-05-10T05:14:37;7.88;;;2.00;;
38111;SDS011;64011;56.312;44.048;2023-05-10T05:16:38;7.85;;;2.13;;
38111;SDS011;64011;56.312;44.048;2023-05-10T05:18:39;7.90;;;1.60;;
38111;SDS011;64011;56.312;44.048;2023-05-10T05:20:41;4.75;;;1.80;;
38111;SDS011;64011;56.312;44.048;2023-05-10T05:22:42;13.98;;;1.90;;
38111;SDS011;64011;56.312;44.048;2023-05-10T05:24:43;7.22;;;1.60;;
38111;SDS011;64011;56.312;44.048;2023-05-10T05:26:44;5.57;;;1.77;;
38111;SDS011;64011;56.312;44.048;2023-05-10T05:28:45;4.40;;;1.70;;
38111;SDS011;64011;56.312;44.048;2023-05-10T05:30:46;6.35;;;1.92;;
38111;SDS011;64011;56.312;44.048;2023-05-10T05:32:47;9.13;;;1.77;;
38111;SDS011;64011;56.312;44.048;2023-05-10T05:34:48;6.55;;;1.70;;
38111;SDS011;64011;56.312;44.048;2023-05-10T05:36:50;7.78;;;1.92;;
38111;SDS011;64011;56.312;44.048;2023-05-10T05:38:51;8.68;;;2.03;;
38111;SDS011;64011;56.312;44.048;2023-05-10T05:40:52;5.03;;;2.05;;
38111;SDS011;64011;56.312;44.048;2023-05-10T05:42:53;8.23;;;1.80;;
38111;SDS011;64011;56.312;44.048;2023-05-10T05:44:53;5.28;;;1.83;;
38111;SDS011;64011;56.312;44.048;2023-05-10T05:46:54;5.75;;;2.10;;
38111;SDS011;64011;56.312;44.048;2023-05-10T05:48:55;11.15;;;2.08;;
38111;SDS011;64011;56.312;44.048;2023-05-10T05:50:56;8.40;;;2.42;;
38111;SDS011;64011;56.312;44.048;2023-05-10T05:52:58;9.13;;;2.10;;
38111;SDS011;64011;56.312;44.048;2023-05-10T05:54:59;7.05;;;2.53;;
38111;SDS011;64011;56.312;44.048;2023-05-10T05:57:00;10.90;;;2.80;;
38111;SDS011;64011;56.312;44.048;2023-05-10T05:59:01;11.50;;;3.45;;
38111;SDS011;64011;56.312;44.048;2023-05-10T06:01:02;12.90;;;3.00;;
38111;SDS011;64011;56.312;44.048;2023-05-10T06:03:03;9.77;;;2.85;;
38111;SDS011;64011;56.312;44.048;2023-05-10T06:05:04;15.48;;;3.15;;
38111;SDS011;64011;56.312;44.048;2023-05-10T06:07:06;7.68;;;2.38;;
38111;SDS011;64011;56.312;44.048;2023-05-10T06:09:08;12.88;;;2.92;;
38111;SDS011;64011;56.312;44.048;2023-05-10T06:11:09;8.60;;;2.60;;
38111;SDS011;64011;56.312;44.048;2023-05-10T06:13:10;8.43;;;2.33;;
38111;SDS011;64011;56.312;44.048;2023-05-10T06:15:11;5.68;;;1.92;;
38111;SDS011;64011;56.312;44.048;2023-05-10T06:17:12;8.07;;;2.30;;
38111;SDS011;64011;56.312;44.048;2023-05-10T06:19:13;5.85;;;1.75;;
38111;SDS011;64011;56.312;44.048;2023-05-10T06:21:13;10.43;;;2.42;;
38111;SDS011;64011;56.312;44.048;2023-05-10T06:23:14;4.05;;;1.77;;
38111;SDS011;64011;56.312;44.048;2023-05-10T06:25:16;6.50;;;1.80;;
38111;SDS011;64011;56.312;44.048;2023-05-10T06:27:17;4.88;;;1.70;;
38111;SDS011;64011;56.312;44.048;2023-05-10T06:29:18;5.20;;;1.77;;
38111;SDS011;64011;56.312;44.048;2023-05-10T06:31:19;4.75;;;1.60;;
38111;SDS011;64011;56.312;44.048;2023-05-10T06:33:20;5.63;;;1.70;;
38111;SDS011;64011;56.312;44.048;2023-05-10T06:35:21;7.00;;;1.80;;
38111;SDS011;64011;56.312;44.048;2023-05-10T06:37:22;2.85;;;1.55;;
38111;SDS011;64011;56.312;44.048;2023-05-10T06:39:22;3.50;;;1.60;;
38111;SDS011;64011;56.312;44.048;2023-05-10T06:41:25;5.70;;;1.70;;
38111;SDS011;64011;56.312;44.048;2023-05-10T06:43:26;5.53;;;2.05;;
38111;SDS011;64011;56.312;44.048;2023-05-10T06:45:27;5.97;;;1.85;;
38111;SDS011;64011;56.312;44.048;2023-05-10T06:47:27;6.47;;;1.70;;
38111;SDS011;64011;56.312;44.048;2023-05-10T06:49:28;5.25;;;1.85;;
38111;SDS011;64011;56.312;44.048;2023-05-10T06:51:29;6.38;;;1.98;;
38111;SDS011;64011;56.312;44.048;2023-05-10T06:53:30;10.63;;;1.90;;
38111;SDS011;64011;56.312;44.048;2023-05-10T06:55:31;4.63;;;2.00;;
38111;SDS011;64011;56.312;44.048;2023-05-10T06:57:33;9.07;;;1.83;;
38111;SDS011;64011;56.312;44.048;2023-05-10T06:59:34;7.65;;;1.92;;
38111;SDS011;64011;56.312;44.048;2023-05-10T07:01:35;5.15;;;2.00;;
38111;SDS011;64011;56.312;44.048;2023-05-10T07:03:36;9.73;;;2.38;;
38111;SDS011;64011;56.312;44.048;2023-05-10T07:05:37;8.68;;;2.00;;
38111;SDS011;64011;56.312;44.048;2023-05-10T07:07:37;6.07;;;2.00;;
38111;SDS011;64011;56.312;44.048;2023-05-10T07:09:38;7.30;;;2.20;;
38111;SDS011;64011;56.312;44.048;2023-05-10T07:11:39;8.52;;;1.85;;
38111;SDS011;64011;56.312;44.048;2023-05-10T07:13:41;6.30;;;1.63;;
38111;SDS011;64011;56.312;44.048;2023-05-10T07:15:42;3.63;;;1.70;;
38111;SDS011;64011;56.312;44.048;2023-05-10T07:17:43;7.55;;;2.00;;
38111;SDS011;64011;56.312;44.048;2023-05-10T07:19:44;4.88;;;1.80;;
38111;SDS011;64011;56.312;44.048;2023-05-10T07:21:45;4.53;;;1.80;;
38111;SDS011;64011;56.312;44.048;2023-05-10T07:23:46;7.03;;;1.77;;
38111;SDS011;64011;56.312;44.048;2023-05-10T07:25:46;4.82;;;1.70;;
38111;SDS011;64011;56.312;44.048;2023-05-10T07:27:47;4.35;;;1.45;;
38111;SDS011;64011;56.312;44.048;2023-05-10T07:29:50;4.93;;;1.65;;
38111;SDS011;64011;56.312;44.048;2023-05-10T07:31:50;4.13;;;1.58;;
38111;SDS011;64011;56.312;44.048;2023-05-10T07:33:51;6.97;;;1.60;;
38111;SDS011;64011;56.312;44.048;2023-05-10T07:35:52;6.10;;;2.00;;
38111;SDS011;64011;56.312;44.048;2023-05-10T07:37:53;5.70;;;2.10;;
38111;SDS011;64011;56.312;44.048;2023-05-10T07:39:54;5.43;;;1.63;;
38111;SDS011;64011;56.312;44.048;2023-05-10T07:41:55;5.30;;;1.92;;
38111;SDS011;64011;56.312;44.048;2023-05-10T07:43:56;5.72;;;1.70;;
38111;SDS011;64011;56.312;44.048;2023-05-10T07:45:58;5.07;;;1.80;;
38111;SDS011;64011;56.312;44.048;2023-05-10T07:47:59;4.18;;;1.77;;
38111;SDS011;64011;56.312;44.048;2023-05-10T07:50:00;4.50;;;1.80;;
38111;SDS011;64011;56.312;44.048;2023-05-10T07:52:02;5.13;;;1.90;;
38111;SDS011;64011;56.312;44.048;2023-05-10T07:54:03;3.65;;;1.80;;
38111;SDS011;64011;56.312;44.048;2023-05-10T07:56:19;5.80;;;1.90;;
38111;SDS011;64011;56.312;44.048;2023-05-10T07:58:21;6.78;;;2.00;;
38111;SDS011;64011;56.312;44.048;2023-05-10T08:00:22;6.28;;;1.73;;
38111;SDS011;64011;56.312;44.048;2023-05-10T08:02:24;4.00;;;1.50;;
38111;SDS011;64011;56.312;44.048;2023-05-10T08:04:25;3.80;;;1.70;;
38111;SDS011;64011;56.312;44.048;2023-05-10T08:06:26;5.03;;;1.75;;
38111;SDS011;64011;56.312;44.048;2023-05-10T08:08:27;8.32;;;2.08;;
38111;SDS011;64011;56.312;44.048;2023-05-10T08:10:28;8.23;;;1.90;;
38111;SDS011;64011;56.312;44.048;2023-05-10T08:12:29;6.53;;;2.05;;
38111;SDS011;64011;56.312;44.048;2023-05-10T08:14:30;8.95;;;1.90;;
38111;SDS011;64011;56.312;44.048;2023-05-10T08:16:31;3.45;;;1.40;;
38111;SDS011;64011;56.312;44.048;2023-05-10T08:18:33;6.53;;;1.70;;
38111;SDS011;64011;56.312;44.048;2023-05-10T08:20:34;7.70;;;2.03;;
38111;SDS011;64011;56.312;44.048;2023-05-10T08:22:35;4.93;;;1.83;;
38111;SDS011;64011;56.312;44.048;2023-05-10T08:24:36;5.10;;;1.80;;
38111;SDS011;64011;56.312;44.048;2023-05-10T08:26:37;6.68;;;1.80;;
38111;SDS011;64011;56.312;44.048;2023-05-10T08:28:38;3.42;;;1.60;;
38111;SDS011;64011;56.312;44.048;2023-05-10T08:30:39;4.15;;;1.60;;
38111;SDS011;64011;56.312;44.048;2023-05-10T08:32:39;3.70;;;1.60;;
38111;SDS011;64011;56.312;44.048;2023-05-10T08:34:42;3.90;;;1.65;;
38111;SDS011;64011;56.312;44.048;2023-05-10T08:36:43;4.75;;;1.73;;
38111;SDS011;64011;56.312;44.048;2023-05-10T08:38:43;4.15;;;1.63;;
38111;SDS011;64011;56.312;44.048;2023-05-10T08:40:44;7.53;;;1.90;;
38111;SDS011;64011;56.312;44.048;2023-05-10T08:42:47;2.83;;;1.50;;
38111;SDS011;64011;56.312;44.048;2023-05-10T08:44:51;6.20;;;1.73;;
38111;SDS011;64011;56.312;44.048;2023-05-10T08:46:53;4.03;;;1.70;;
38111;SDS011;64011;56.312;44.048;2023-05-10T08:48:54;5.10;;;1.63;;
38111;SDS011;64011;56.312;44.048;2023-05-10T08:50:57;5.82;;;1.80;;
38111;SDS011;64011;56.312;44.048;2023-05-10T08:53:00;7.55;;;1.67;;
38111;SDS011;64011;56.312;44.048;2023-05-10T08:55:01;6.43;;;1.60;;
38111;SDS011;64011;56.312;44.048;2023-05-10T08:57:04;5.43;;;1.65;;
38111;SDS011;64011;56.312;44.048;2023-05-10T08:59:05;9.82;;;2.00;;
38111;SDS011;64011;56.312;44.048;2023-05-10T09:01:06;6.85;;;2.08;;
38111;SDS011;64011;56.312;44.048;2023-05-10T09:03:08;7.13;;;2.08;;
38111;SDS011;64011;56.312;44.048;2023-05-10T09:05:09;5.90;;;1.55;;
38111;SDS011;64011;56.312;44.048;2023-05-10T09:07:12;5.00;;;1.90;;
38111;SDS011;64011;56.312;44.048;2023-05-10T09:09:12;4.97;;;1.80;;
38111;SDS011;64011;56.312;44.048;2023-05-10T09:11:14;3.25;;;1.45;;
38111;SDS011;64011;56.312;44.048;2023-05-10T09:13:15;6.53;;;1.90;;
38111;SDS011;64011;56.312;44.048;2023-05-10T09:15:15;4.03;;;1.67;;
38111;SDS011;64011;56.312;44.048;2023-05-10T09:17:16;3.60;;;1.40;;
38111;SDS011;64011;56.312;44.048;2023-05-10T09:19:17;4.97;;;1.70;;
38111;SDS011;64011;56.312;44.048;2023-05-10T09:21:19;4.95;;;1.65;;
38111;SDS011;64011;56.312;44.048;2023-05-10T09:23:21;4.65;;;1.55;;
38111;SDS011;64011;56.312;44.048;2023-05-10T09:25:22;4.57;;;1.70;;
38111;SDS011;64011;56.312;44.048;2023-05-10T09:27:26;5.53;;;1.60;;
38111;SDS011;64011;56.312;44.048;2023-05-10T09:29:28;5.28;;;1.40;;
38111;SDS011;64011;56.312;44.048;2023-05-10T09:31:48;3.83;;;1.70;;
38111;SDS011;64011;56.312;44.048;2023-05-10T09:33:50;5.10;;;1.63;;
38111;SDS011;64011;56.312;44.048;2023-05-10T09:35:52;4.65;;;1.85;;
38111;SDS011;64011;56.312;44.048;2023-05-10T09:37:53;4.90;;;1.63;;
38111;SDS011;64011;56.312;44.048;2023-05-10T09:39:56;4.60;;;1.80;;
38111;SDS011;64011;56.312;44.048;2023-05-10T09:41:57;4.55;;;1.77;;
38111;SDS011;64011;56.312;44.048;2023-05-10T09:43:58;3.90;;;1.60;;
38111;SDS011;64011;56.312;44.048;2023-05-10T09:45:59;2.95;;;1.50;;
38111;SDS011;64011;56.312;44.048;2023-05-10T09:48:09;4.20;;;1.98;;
38111;SDS011;64011;56.312;44.048;2023-05-10T09:50:10;5.25;;;1.73;;
38111;SDS011;64011;56.312;44.048;2023-05-10T09:52:10;3.38;;;1.70;;
38111;SDS011;64011;56.312;44.048;2023-05-10T09:54:12;4.55;;;1.70;;
38111;SDS011;64011;56.312;44.048;2023-05-10T09:56:15;6.18;;;1.80;;
38111;SDS011;64011;56.312;44.048;2023-05-10T09:58:35;8.18;;;2.05;;
38111;SDS011;64011;56.312;44.048;2023-05-10T10:00:37;7.72;;;1.90;;
38111;SDS011;64011;56.312;44.048;2023-05-10T10:02:38;4.70;;;1.65;;
38111;SDS011;64011;56.312;44.048;2023-05-10T10:04:39;4.72;;;1.80;;
38111;SDS011;64011;56.312;44.048;2023-05-10T10:06:40;5.00;;;1.83;;
38111;SDS011;64011;56.312;44.048;2023-05-10T10:08:41;6.25;;;1.73;;
38111;SDS011;64011;56.312;44.048;2023-05-10T10:10:42;6.78;;;1.73;;
38111;SDS011;64011;56.312;44.048;2023-05-10T10:12:45;3.78;;;1.73;;
38111;SDS011;64011;56.312;44.048;2023-05-10T10:14:46;4.50;;;1.55;;
38111;SDS011;64011;56.312;44.048;2023-05-10T10:16:47;4.30;;;1.40;;
38111;SDS011;64011;56.312;44.048;2023-05-10T10:18:49;5.80;;;1.55;;
38111;SDS011;64011;56.312;44.048;2023-05-10T10:20:50;9.75;;;1.73;;
38111;SDS011;64011;56.312;44.048;2023-05-10T10:22:51;4.82;;;1.95;;
38111;SDS011;64011;56.312;44.048;2023-05-10T10:24:52;2.40;;;1.40;;
38111;SDS011;64011;56.312;44.048;2023-05-10T10:26:55;5.72;;;1.60;;
38111;SDS011;64011;56.312;44.048;2023-05-10T10:29:07;3.65;;;1.60;;
38111;SDS011;64011;56.312;44.048;2023-05-10T10:31:17;8.82;;;1.70;;
38111;SDS011;64011;56.312;44.048;2023-05-10T10:33:40;4.60;;;1.80;;
38111;SDS011;64011;56.312;44.048;2023-05-10T10:35:58;7.32;;;1.60;;
38111;SDS011;64011;56.312;44.048;2023-05-10T10:38:00;3.72;;;1.80;;
38111;SDS011;64011;56.312;44.048;2023-05-10T10:40:01;3.50;;;1.83;;
38111;SDS011;64011;56.312;44.048;2023-05-10T10:42:43;4.07;;;1.63;;
38111;SDS011;64011;56.312;44.048;2023-05-10T10:44:46;4.35;;;1.70;;
38111;SDS011;64011;56.312;44.048;2023-05-10T10:49:23;4.82;;;1.73;;
38111;SDS011;64011;56.312;44.048;2023-05-10T10:51:24;3.20;;;1.40;;
38111;SDS011;64011;56.312;44.048;2023-05-10T10:53:28;6.40;;;2.13;;
38111;SDS011;64011;56.312;44.048;2023-05-10T10:55:29;3.63;;;1.80;;
38111;SDS011;64011;56.312;44.048;2023-05-10T10:57:42;6.05;;;1.63;;
38111;SDS011;64011;56.312;44.048;2023-05-10T10:59:46;3.70;;;1.48;;
38111;SDS011;64011;56.312;44.048;2023-05-10T11:01:47;3.95;;;1.48;;
38111;SDS011;64011;56.312;44.048;2023-05-10T11:06:25;6.15;;;2.05;;
38111;SDS011;64011;56.312;44.048;2023-05-10T11:08:30;6.28;;;1.73;;
38111;SDS011;64011;56.312;44.048;2023-05-10T11:10:31;4.03;;;1.60;;
38111;SDS011;64011;56.312;44.048;2023-05-10T11:12:33;4.53;;;1.60;;
38111;SDS011;64011;56.312;44.048;2023-05-10T11:14:34;4.13;;;1.77;;
38111;SDS011;64011;56.312;44.048;2023-05-10T11:16:41;4.35;;;1.60;;
38111;SDS011;64011;56.312;44.048;2023-05-10T11:20:59;5.43;;;1.92;;
38111;SDS011;64011;56.312;44.048;2023-05-10T11:23:10;7.03;;;1.77;;
38111;SDS011;64011;56.312;44.048;2023-05-10T11:25:12;5.78;;;1.70;;
38111;SDS011;64011;56.312;44.048;2023-05-10T11:27:13;3.10;;;1.50;;
38111;SDS011;64011;56.312;44.048;2023-05-10T11:29:15;6.30;;;2.60;;
38111;SDS011;64011;56.312;44.048;2023-05-10T11:31:17;9.80;;;3.10;;
38111;SDS011;64011;56.312;44.048;2023-05-10T11:33:19;7.35;;;2.10;;
38111;SDS011;64011;56.312;44.048;2023-05-10T11:35:20;6.90;;;1.70;;
38111;SDS011;64011;56.312;44.048;2023-05-10T11:37:21;4.18;;;1.52;;
38111;SDS011;64011;56.312;44.048;2023-05-10T11:39:25;8.98;;;1.80;;
38111;SDS011;64011;56.312;44.048;2023-05-10T11:41:27;6.93;;;1.83;;
38111;SDS011;64011;56.312;44.048;2023-05-10T11:43:29;4.60;;;1.70;;
38111;SDS011;64011;56.312;44.048;2023-05-10T11:45:31;4.13;;;1.70;;
38111;SDS011;64011;56.312;44.048;2023-05-10T11:47:32;5.15;;;1.70;;
38111;SDS011;64011;56.312;44.048;2023-05-10T11:49:34;3.25;;;1.65;;
38111;SDS011;64011;56.312;44.048;2023-05-10T11:51:35;4.35;;;1.88;;
38111;SDS011;64011;56.312;44.048;2023-05-10T11:53:37;3.90;;;1.40;;
38111;SDS011;64011;56.312;44.048;2023-05-10T11:55:37;3.03;;;1.40;;
38111;SDS011;64011;56.312;44.048;2023-05-10T11:57:38;5.38;;;1.77;;
38111;SDS011;64011;56.312;44.048;2023-05-10T11:59:39;4.90;;;1.45;;
38111;SDS011;64011;56.312;44.048;2023-05-10T12:01:40;3.80;;;1.52;;
38111;SDS011;64011;56.312;44.048;2023-05-10T12:03:41;4.10;;;1.50;;
38111;SDS011;64011;56.312;44.048;2023-05-10T12:05:44;4.55;;;1.50;;
38111;SDS011;64011;56.312;44.048;2023-05-10T12:07:44;6.35;;;1.60;;
38111;SDS011;64011;56.312;44.048;2023-05-10T12:12:05;2.95;;;1.50;;
38111;SDS011;64011;56.312;44.048;2023-05-10T12:14:07;3.42;;;1.50;;
38111;SDS011;64011;56.312;44.048;2023-05-10T12:16:15;4.60;;;1.75;;